Terminal Aerodrome Forecast
Issued by NWS

Home | Current Version | Previous Version | Text Only | Print | Product List | Glossary On
Versions: 1 2 3 4 5 6 7 8 9 10 11 12
166
FTPA31 PHFO 230520
TAFSTU
TAF
NSTU 230520Z 2306/2406 14005KT P6SM SCT020 SCT045 SCT110=

USA.gov is the U.S. government's official web portal to all federal, state and local government web resources and services.